createdAt,value
2023-01-07T00:01:37.446Z,2.80
2023-01-07T00:04:06.977Z,3.92
2023-01-07T00:06:36.390Z,3.70
2023-01-07T00:09:04.277Z,3.92
2023-01-07T00:11:35.937Z,4.25
2023-01-07T00:14:05.291Z,4.05
2023-01-07T00:16:33.501Z,4.13
2023-01-07T00:19:01.618Z,3.97
2023-01-07T00:21:29.241Z,4.43
2023-01-07T00:23:58.528Z,5.57
2023-01-07T00:26:27.239Z,4.68
2023-01-07T00:28:54.103Z,5.55
2023-01-07T00:31:29.112Z,5.13
2023-01-07T00:33:59.040Z,5.88
2023-01-07T00:36:28.891Z,5.40
2023-01-07T00:39:03.590Z,5.60
2023-01-07T00:41:30.211Z,5.38
2023-01-07T00:43:57.402Z,6.55
2023-01-07T00:46:24.319Z,5.88
2023-01-07T00:48:51.246Z,6.32
2023-01-07T00:51:18.779Z,5.57
2023-01-07T00:53:46.031Z,6.22
2023-01-07T00:56:14.682Z,6.00
2023-01-07T00:58:41.737Z,5.95
2023-01-07T01:01:10.545Z,6.57
2023-01-07T01:03:38.386Z,7.50
2023-01-07T01:06:12.963Z,6.93
2023-01-07T01:08:42.529Z,7.40
2023-01-07T01:11:10.930Z,7.38
2023-01-07T01:13:37.993Z,7.15
2023-01-07T01:16:09.434Z,7.85
2023-01-07T01:18:36.560Z,7.28
2023-01-07T01:21:07.457Z,8.07
2023-01-07T01:23:34.864Z,7.07
2023-01-07T01:26:10.582Z,7.07
2023-01-07T01:28:37.555Z,7.78
2023-01-07T01:31:04.298Z,7.65
2023-01-07T01:33:31.127Z,7.22
2023-01-07T01:35:57.625Z,7.32
2023-01-07T01:38:24.132Z,7.18
2023-01-07T01:40:50.645Z,6.88
2023-01-07T01:43:32.201Z,7.53
2023-01-07T01:46:03.600Z,8.05
2023-01-07T01:48:33.115Z,7.60
2023-01-07T01:51:00.479Z,8.13
2023-01-07T01:53:30.393Z,8.40
2023-01-07T01:56:11.097Z,8.00
2023-01-07T01:58:43.647Z,7.43
2023-01-07T02:01:10.247Z,8.20
2023-01-07T02:03:37.959Z,7.78
2023-01-07T02:06:05.168Z,6.90
2023-01-07T02:08:31.864Z,7.72
2023-01-07T02:11:22.904Z,7.72
2023-01-07T02:14:04.663Z,7.97
2023-01-07T02:16:48.680Z,6.80
2023-01-07T02:19:35.470Z,7.97
2023-01-07T02:22:46.548Z,7.78
2023-01-07T02:25:25.119Z,7.63
2023-01-07T02:28:16.403Z,7.32
2023-01-07T02:30:54.898Z,7.63
2023-01-07T02:33:34.154Z,8.10
2023-01-07T02:36:08.107Z,7.43
2023-01-07T02:38:55.275Z,8.02
2023-01-07T02:41:43.448Z,7.88
2023-01-07T02:44:20.469Z,8.13
2023-01-07T02:46:56.681Z,8.07
2023-01-07T02:49:23.232Z,7.47
2023-01-07T02:51:50.212Z,7.95
2023-01-07T02:54:23.971Z,8.23
2023-01-07T02:57:09.627Z,7.70
2023-01-07T03:00:00.518Z,7.32
2023-01-07T03:02:56.318Z,8.20
2023-01-07T03:05:47.489Z,8.70
2023-01-07T03:09:09.630Z,8.15
2023-01-07T03:11:47.411Z,8.50
2023-01-07T03:14:26.244Z,8.02
2023-01-07T03:16:57.525Z,7.43
2023-01-07T03:19:47.655Z,8.43
2023-01-07T03:22:17.647Z,7.68
2023-01-07T03:24:46.753Z,8.55
2023-01-07T03:27:14.907Z,7.20
2023-01-07T03:29:42.018Z,7.75
2023-01-07T03:32:23.490Z,7.25
2023-01-07T03:34:50.059Z,7.25
2023-01-07T03:37:20.141Z,6.78
2023-01-07T03:39:48.191Z,6.28
2023-01-07T03:42:39.257Z,6.90
2023-01-07T03:45:18.369Z,6.30
2023-01-07T03:47:50.108Z,7.03
2023-01-07T03:50:17.932Z,7.03
2023-01-07T03:52:45.050Z,6.72
2023-01-07T03:55:11.846Z,6.85
2023-01-07T03:57:38.414Z,6.88
2023-01-07T04:00:06.954Z,7.22
2023-01-07T04:02:33.522Z,6.70
2023-01-07T04:05:00.040Z,6.10
2023-01-07T04:07:26.631Z,6.05
2023-01-07T04:09:53.082Z,5.53
2023-01-07T04:12:19.587Z,6.25
2023-01-07T04:14:46.136Z,6.45
2023-01-07T04:17:12.624Z,5.60
2023-01-07T04:19:39.739Z,5.60
2023-01-07T04:22:10.167Z,6.70
2023-01-07T04:24:36.717Z,6.38
2023-01-07T04:27:03.593Z,6.03
2023-01-07T04:29:30.578Z,6.70
2023-01-07T04:31:57.797Z,6.70
2023-01-07T04:34:24.490Z,6.82
2023-01-07T04:36:51.478Z,6.50
2023-01-07T04:39:18.319Z,6.25
2023-01-07T04:41:45.153Z,7.20
2023-01-07T04:44:11.794Z,6.97
2023-01-07T04:46:38.265Z,7.47
2023-01-07T04:49:04.756Z,8.15
2023-01-07T04:51:31.269Z,8.85
2023-01-07T04:53:58.387Z,8.30
2023-01-07T04:56:24.930Z,8.98
2023-01-07T04:58:51.675Z,9.25
2023-01-07T05:01:18.286Z,9.27
2023-01-07T05:03:44.800Z,9.18
2023-01-07T05:06:11.253Z,8.80
2023-01-07T05:08:37.719Z,8.80
2023-01-07T05:11:05.204Z,8.68
2023-01-07T05:13:32.455Z,9.05
2023-01-07T05:15:59.063Z,8.60
2023-01-07T05:18:25.552Z,8.55
2023-01-07T05:20:52.006Z,9.68
2023-01-07T05:23:18.494Z,8.63
2023-01-07T05:25:45.141Z,8.20
2023-01-07T05:28:12.243Z,8.00
2023-01-07T05:30:39.465Z,8.50
2023-01-07T05:33:07.316Z,8.52
2023-01-07T05:35:34.901Z,8.57
2023-01-07T05:38:01.485Z,8.13
2023-01-07T05:40:28.077Z,8.50
2023-01-07T05:42:54.661Z,8.32
2023-01-07T05:45:24.323Z,8.75
2023-01-07T05:47:50.785Z,8.55
2023-01-07T05:50:17.435Z,8.63
2023-01-07T05:52:43.923Z,9.02
2023-01-07T05:55:10.439Z,10.60
2023-01-07T05:57:36.947Z,10.38
2023-01-07T06:00:04.860Z,9.70
2023-01-07T06:02:31.378Z,9.90
2023-01-07T06:04:57.907Z,10.13
2023-01-07T06:07:24.456Z,9.35
2023-01-07T06:09:50.923Z,9.23
2023-01-07T06:12:17.433Z,9.55
2023-01-07T06:14:43.901Z,9.88
2023-01-07T06:17:10.387Z,9.30
2023-01-07T06:19:37.014Z,8.90
2023-01-07T06:22:03.643Z,7.53
2023-01-07T06:24:30.155Z,7.68
2023-01-07T06:26:56.687Z,7.93
2023-01-07T06:29:23.159Z,7.82
2023-01-07T06:31:49.680Z,8.18
2023-01-07T06:34:16.174Z,8.32
2023-01-07T06:36:42.755Z,7.90
2023-01-07T06:39:09.207Z,7.45
2023-01-07T06:41:35.707Z,7.47
2023-01-07T06:44:02.224Z,7.60
2023-01-07T06:46:28.890Z,6.20
2023-01-07T06:48:55.602Z,6.53
2023-01-07T06:51:22.060Z,6.13
2023-01-07T06:53:48.502Z,5.72
2023-01-07T06:56:15.003Z,5.80
2023-01-07T06:58:41.463Z,5.85
2023-01-07T07:01:08.989Z,6.28
2023-01-07T07:03:35.577Z,6.10
2023-01-07T07:06:02.155Z,7.18
2023-01-07T07:08:28.626Z,6.70
2023-01-07T07:10:55.143Z,7.10
2023-01-07T07:13:21.767Z,6.13
2023-01-07T07:15:49.778Z,6.32
2023-01-07T07:18:18.039Z,7.20
2023-01-07T07:20:46.584Z,7.13
2023-01-07T07:23:13.387Z,7.63
2023-01-07T07:25:40.018Z,8.20
2023-01-07T07:28:06.543Z,8.30
2023-01-07T07:30:45.615Z,7.75
2023-01-07T07:33:15.069Z,8.23
2023-01-07T07:35:42.045Z,8.00
2023-01-07T07:38:08.611Z,7.30
2023-01-07T07:40:35.203Z,8.07
2023-01-07T07:43:11.789Z,8.23
2023-01-07T07:45:40.452Z,8.23
2023-01-07T07:48:08.021Z,8.60
2023-01-07T07:50:35.229Z,8.95
2023-01-07T07:53:01.969Z,8.75
2023-01-07T07:55:28.582Z,8.75
2023-01-07T07:57:55.888Z,8.70
2023-01-07T08:00:23.194Z,8.60
2023-01-07T08:02:49.724Z,8.85
2023-01-07T08:05:16.464Z,10.50
2023-01-07T08:07:43.006Z,9.13
2023-01-07T08:10:09.696Z,9.45
2023-01-07T08:12:38.231Z,11.02
2023-01-07T08:15:06.214Z,9.60
2023-01-07T08:17:32.680Z,9.98
2023-01-07T08:19:59.216Z,9.68
2023-01-07T08:22:25.678Z,10.10
2023-01-07T08:24:52.189Z,10.00
2023-01-07T08:27:18.664Z,9.07
2023-01-07T08:29:45.227Z,8.85
2023-01-07T08:32:11.719Z,8.82
2023-01-07T08:34:38.233Z,12.07
2023-01-07T08:37:04.789Z,7.72
2023-01-07T08:39:31.339Z,8.18
2023-01-07T08:41:57.879Z,8.15
2023-01-07T08:44:24.375Z,7.65
2023-01-07T08:46:52.753Z,7.15
2023-01-07T08:49:19.232Z,7.95
2023-01-07T08:51:45.742Z,7.72
2023-01-07T08:54:12.270Z,7.18
2023-01-07T08:56:38.707Z,6.60
2023-01-07T08:59:05.225Z,6.68
2023-01-07T09:01:31.781Z,7.55
2023-01-07T09:03:58.362Z,7.43
2023-01-07T09:06:24.899Z,7.20
2023-01-07T09:08:51.501Z,6.88
2023-01-07T09:11:18.074Z,8.02
2023-01-07T09:13:44.600Z,7.15
2023-01-07T09:16:11.281Z,8.30
2023-01-07T09:18:37.825Z,8.07
2023-01-07T09:21:04.373Z,9.18
2023-01-07T09:23:30.881Z,7.20
2023-01-07T09:25:57.430Z,7.45
2023-01-07T09:28:23.932Z,7.88
2023-01-07T09:30:50.471Z,8.60
2023-01-07T09:33:16.988Z,7.50
2023-01-07T09:35:43.544Z,7.75
2023-01-07T09:38:10.111Z,7.68
2023-01-07T09:40:39.761Z,6.85
2023-01-07T09:43:27.201Z,7.30
2023-01-07T09:46:14.635Z,7.78
2023-01-07T09:48:47.415Z,7.57
2023-01-07T09:51:23.778Z,7.88
2023-01-07T09:53:53.266Z,8.50
2023-01-07T09:56:33.378Z,7.03
2023-01-07T09:59:01.832Z,7.75
2023-01-07T10:01:46.627Z,7.32
2023-01-07T10:04:25.125Z,7.72
2023-01-07T10:07:11.381Z,7.55
2023-01-07T10:09:55.269Z,7.82
2023-01-07T10:12:36.822Z,7.20
2023-01-07T10:15:22.053Z,7.07
2023-01-07T10:18:14.965Z,7.32
2023-01-07T10:20:53.499Z,7.00
2023-01-07T10:23:24.165Z,7.20
2023-01-07T10:25:53.891Z,6.90
2023-01-07T10:28:30.169Z,7.30
2023-01-07T10:30:59.022Z,6.28
2023-01-07T10:33:29.756Z,7.00
2023-01-07T10:36:08.539Z,7.38
2023-01-07T10:38:40.953Z,6.97
2023-01-07T10:41:22.667Z,6.77
2023-01-07T10:44:18.345Z,7.13
2023-01-07T10:47:06.184Z,6.05
2023-01-07T10:49:53.777Z,6.72
2023-01-07T10:52:45.852Z,6.57
2023-01-07T10:55:27.927Z,6.25
2023-01-07T10:57:54.497Z,6.43
2023-01-07T11:00:21.282Z,5.90
2023-01-07T11:02:56.903Z,6.22
2023-01-07T11:05:28.807Z,6.40
2023-01-07T11:08:04.491Z,6.03
2023-01-07T11:10:36.461Z,5.82
2023-01-07T11:13:16.329Z,6.63
2023-01-07T11:15:52.591Z,5.40
2023-01-07T11:18:33.255Z,5.47
2023-01-07T11:21:00.613Z,5.78
2023-01-07T11:23:43.750Z,6.30
2023-01-07T11:28:48.455Z,5.68
2023-01-07T11:31:14.963Z,6.18
2023-01-07T11:34:01.474Z,5.22
2023-01-07T11:36:41.784Z,5.75
2023-01-07T11:39:22.021Z,5.60
2023-01-07T11:41:58.264Z,5.28
2023-01-07T11:44:25.767Z,5.50
2023-01-07T11:46:53.552Z,5.25
2023-01-07T11:49:26.685Z,5.35
2023-01-07T11:51:53.951Z,5.30
2023-01-07T11:54:28.652Z,4.95
2023-01-07T11:57:22.599Z,5.30
2023-01-07T12:00:05.960Z,4.53
2023-01-07T12:02:32.522Z,4.93
2023-01-07T12:05:23.195Z,4.80
2023-01-07T12:07:51.517Z,5.28
2023-01-07T12:10:31.187Z,4.72
2023-01-07T12:13:00.056Z,5.32
2023-01-07T12:15:37.411Z,4.32
2023-01-07T12:18:21.767Z,4.05
2023-01-07T12:21:06.843Z,4.50
2023-01-07T12:23:44.403Z,4.22
2023-01-07T12:26:25.878Z,3.95
2023-01-07T12:29:11.116Z,3.50
2023-01-07T12:31:37.594Z,4.53
2023-01-07T12:34:10.595Z,3.95
2023-01-07T12:37:02.193Z,3.70
2023-01-07T12:39:38.692Z,3.60
2023-01-07T12:42:12.316Z,3.35
2023-01-07T12:44:46.278Z,3.10
2023-01-07T12:47:31.180Z,3.00
2023-01-07T12:50:21.734Z,3.13
2023-01-07T12:52:56.308Z,3.50
2023-01-07T12:55:29.455Z,2.90
2023-01-07T12:58:16.710Z,2.80
2023-01-07T13:00:57.290Z,3.28
2023-01-07T13:03:46.544Z,2.90
2023-01-07T13:06:42.681Z,3.38
2023-01-07T13:09:18.306Z,3.97
2023-01-07T13:12:47.538Z,3.38
2023-01-07T13:15:22.875Z,2.90
2023-01-07T13:17:51.176Z,2.85
2023-01-07T13:20:27.876Z,2.83
2023-01-07T13:22:56.457Z,2.60
2023-01-07T13:25:32.853Z,2.88
2023-01-07T13:28:21.009Z,2.80
2023-01-07T13:31:21.627Z,2.80
2023-01-07T13:34:32.127Z,2.45
2023-01-07T13:37:35.671Z,2.45
2023-01-07T13:40:32.705Z,2.35
2023-01-07T13:43:33.950Z,3.10
2023-01-07T13:46:10.478Z,2.58
2023-01-07T13:48:38.499Z,2.40
2023-01-07T13:51:07.333Z,2.65
2023-01-07T13:53:54.073Z,3.05
2023-01-07T13:56:20.569Z,2.63
2023-01-07T13:58:49.738Z,2.88
2023-01-07T14:01:18.374Z,2.22
2023-01-07T14:03:54.080Z,2.28
2023-01-07T14:06:23.835Z,2.30
2023-01-07T14:08:59.827Z,2.80
2023-01-07T14:11:44.346Z,2.53
2023-01-07T14:14:41.259Z,2.55
2023-01-07T14:17:38.197Z,2.67
2023-01-07T14:20:21.002Z,1.98
2023-01-07T14:23:00.868Z,2.67
2023-01-07T14:25:39.398Z,2.83
2023-01-07T14:28:41.713Z,3.03
2023-01-07T14:31:21.836Z,2.97
2023-01-07T14:33:53.089Z,3.47
2023-01-07T14:36:20.202Z,2.88
2023-01-07T14:38:56.610Z,3.13
2023-01-07T14:41:23.154Z,2.88
2023-01-07T14:44:01.189Z,2.97
2023-01-07T14:46:27.736Z,3.50
2023-01-07T14:49:03.272Z,2.80
2023-01-07T14:51:51.027Z,2.83
2023-01-07T14:54:32.766Z,2.90
2023-01-07T14:57:25.987Z,2.97
2023-01-07T15:00:07.853Z,2.95
2023-01-07T15:03:00.327Z,3.55
2023-01-07T15:06:01.270Z,3.28
2023-01-07T15:08:56.167Z,3.03
2023-01-07T15:11:44.523Z,3.55
2023-01-07T15:14:43.329Z,4.43
2023-01-07T15:17:12.687Z,4.75
2023-01-07T15:19:40.121Z,4.38
2023-01-07T15:22:24.603Z,4.03
2023-01-07T15:25:09.419Z,3.65
2023-01-07T15:27:51.526Z,3.88
2023-01-07T15:30:35.368Z,4.22
2023-01-07T15:33:01.801Z,4.05
2023-01-07T15:35:48.736Z,3.70
2023-01-07T15:38:30.433Z,4.05
2023-01-07T15:40:59.343Z,4.30
2023-01-07T15:43:28.508Z,3.95
2023-01-07T15:46:00.963Z,4.35
2023-01-07T15:48:27.644Z,4.33
2023-01-07T15:50:54.178Z,4.60
2023-01-07T15:53:26.615Z,4.43
2023-01-07T15:56:05.978Z,5.07
2023-01-07T15:58:40.083Z,4.55
2023-01-07T16:01:12.749Z,4.35
2023-01-07T16:03:39.787Z,4.53
2023-01-07T16:06:20.415Z,4.25
2023-01-07T16:08:46.931Z,4.10
2023-01-07T16:11:28.135Z,3.95
2023-01-07T16:14:04.306Z,4.68
2023-01-07T16:16:32.368Z,4.85
2023-01-07T16:19:03.320Z,4.28
2023-01-07T16:21:36.234Z,4.50
2023-01-07T16:24:03.078Z,4.10
2023-01-07T16:26:38.671Z,4.50
2023-01-07T16:29:19.512Z,4.28
2023-01-07T16:31:51.658Z,4.82
2023-01-07T16:34:42.295Z,5.75
2023-01-07T16:37:15.839Z,5.18
2023-01-07T16:42:23.042Z,4.95
2023-01-07T16:44:52.522Z,4.88
2023-01-07T16:47:22.309Z,5.32
2023-01-07T16:49:50.351Z,5.43
2023-01-07T16:52:22.208Z,5.35
2023-01-07T16:54:52.057Z,5.35
2023-01-07T16:57:34.718Z,5.85
2023-01-07T17:00:05.808Z,7.10
2023-01-07T17:02:53.784Z,5.75
2023-01-07T17:05:24.239Z,5.40
2023-01-07T17:08:00.398Z,5.35
2023-01-07T17:10:32.903Z,5.28
2023-01-07T17:13:25.311Z,6.43
2023-01-07T17:15:52.219Z,6.20
2023-01-07T17:18:18.648Z,6.30
2023-01-07T17:20:48.119Z,6.43
2023-01-07T17:23:26.714Z,6.63
2023-01-07T17:25:56.017Z,5.45
2023-01-07T17:28:25.479Z,5.82
2023-01-07T17:30:52.677Z,5.22
2023-01-07T17:33:22.059Z,4.95
2023-01-07T17:35:48.793Z,5.88
2023-01-07T17:38:16.843Z,6.70
2023-01-07T17:40:45.009Z,8.35
2023-01-07T17:43:37.549Z,7.43
2023-01-07T17:46:06.889Z,9.25
2023-01-07T17:48:34.846Z,9.45
2023-01-07T17:51:04.378Z,11.43
2023-01-07T17:53:34.079Z,13.43
2023-01-07T17:56:01.773Z,13.68
2023-01-07T17:58:32.389Z,13.88
2023-01-07T18:01:01.301Z,12.30
2023-01-07T18:03:28.256Z,13.65
2023-01-07T18:05:54.774Z,12.90
2023-01-07T18:08:21.250Z,12.38
2023-01-07T18:11:07.638Z,11.00
2023-01-07T18:13:34.176Z,13.52
2023-01-07T18:16:01.023Z,14.52
2023-01-07T18:18:28.818Z,12.15
2023-01-07T18:20:56.130Z,11.80
2023-01-07T18:23:23.646Z,10.90
2023-01-07T18:25:50.761Z,9.80
2023-01-07T18:28:17.802Z,10.32
2023-01-07T18:30:44.248Z,13.45
2023-01-07T18:33:11.727Z,11.68
2023-01-07T18:35:41.845Z,13.23
2023-01-07T18:38:13.048Z,10.35
2023-01-07T18:40:40.073Z,12.35
2023-01-07T18:43:07.026Z,11.68
2023-01-07T18:45:33.629Z,12.63
2023-01-07T18:48:00.141Z,12.95
2023-01-07T18:50:26.835Z,11.55
2023-01-07T18:52:53.342Z,10.48
2023-01-07T18:55:21.083Z,9.45
2023-01-07T18:57:47.693Z,8.13
2023-01-07T19:00:15.367Z,9.75
2023-01-07T19:02:41.866Z,14.50
2023-01-07T19:05:08.462Z,16.23
2023-01-07T19:07:35.304Z,14.02
2023-01-07T19:10:02.908Z,10.15
2023-01-07T19:12:29.594Z,9.40
2023-01-07T19:14:56.186Z,8.02
2023-01-07T19:17:22.711Z,9.13
2023-01-07T19:19:49.287Z,10.40
2023-01-07T19:22:17.225Z,8.45
2023-01-07T19:24:44.444Z,10.88
2023-01-07T19:27:11.233Z,7.65
2023-01-07T19:29:38.052Z,7.65
2023-01-07T19:32:04.997Z,8.38
2023-01-07T19:34:31.538Z,9.13
2023-01-07T19:36:58.016Z,10.80
2023-01-07T19:39:24.589Z,12.15
2023-01-07T19:41:51.181Z,11.00
2023-01-07T19:44:17.884Z,12.93
2023-01-07T19:46:44.398Z,16.63
2023-01-07T19:49:13.378Z,15.45
2023-01-07T19:51:41.393Z,12.07
2023-01-07T19:54:11.444Z,10.00
2023-01-07T19:56:42.311Z,8.65
2023-01-07T19:59:10.355Z,9.23
2023-01-07T20:01:38.884Z,9.98
2023-01-07T20:04:07.770Z,9.10
2023-01-07T20:06:38.739Z,11.30
2023-01-07T20:09:10.548Z,10.80
2023-01-07T20:11:42.673Z,10.45
2023-01-07T20:14:09.351Z,10.35
2023-01-07T20:16:36.954Z,10.02
2023-01-07T20:19:04.064Z,10.20
2023-01-07T20:21:30.570Z,9.07
2023-01-07T20:23:57.081Z,9.05
2023-01-07T20:26:26.892Z,9.95
2023-01-07T20:28:54.543Z,9.60
2023-01-07T20:31:23.374Z,9.93
2023-01-07T20:33:50.675Z,9.57
2023-01-07T20:36:19.327Z,10.07
2023-01-07T20:38:46.679Z,10.60
2023-01-07T20:41:17.710Z,8.23
2023-01-07T20:43:45.309Z,7.85
2023-01-07T20:46:12.399Z,9.02
2023-01-07T20:48:38.894Z,9.75
2023-01-07T20:51:09.693Z,9.93
2023-01-07T20:53:37.132Z,12.43
2023-01-07T20:56:05.646Z,11.23
2023-01-07T20:58:35.325Z,11.68
2023-01-07T21:01:04.666Z,10.98
2023-01-07T21:03:31.385Z,11.20
2023-01-07T21:05:58.213Z,11.98
2023-01-07T21:08:25.700Z,12.90
2023-01-07T21:10:52.970Z,14.35
2023-01-07T21:13:20.378Z,15.68
2023-01-07T21:15:46.975Z,12.40
2023-01-07T21:18:14.159Z,10.18
2023-01-07T21:20:41.065Z,9.68
2023-01-07T21:23:07.797Z,9.38
2023-01-07T21:25:34.424Z,9.30
2023-01-07T21:28:02.070Z,8.73
2023-01-07T21:30:29.231Z,9.07
2023-01-07T21:32:56.173Z,9.48
2023-01-07T21:35:22.767Z,9.27
2023-01-07T21:37:53.208Z,9.93
2023-01-07T21:40:19.992Z,9.07
2023-01-07T21:42:46.551Z,8.63
2023-01-07T21:45:14.372Z,8.85
2023-01-07T21:47:41.870Z,9.30
2023-01-07T21:50:09.296Z,10.02
2023-01-07T21:52:36.411Z,9.75
2023-01-07T21:55:03.031Z,9.43
2023-01-07T21:57:29.684Z,9.73
2023-01-07T21:59:56.345Z,8.68
2023-01-07T22:02:23.089Z,9.25
2023-01-07T22:04:50.514Z,8.93
2023-01-07T22:07:18.789Z,9.73
2023-01-07T22:09:46.077Z,9.98
2023-01-07T22:12:13.662Z,9.57
2023-01-07T22:14:40.432Z,9.43
2023-01-07T22:17:09.395Z,10.20
2023-01-07T22:19:35.919Z,9.80
2023-01-07T22:22:02.428Z,9.55
2023-01-07T22:24:29.025Z,8.18
2023-01-07T22:26:55.728Z,8.52
2023-01-07T22:29:22.307Z,8.85
2023-01-07T22:31:51.148Z,10.25
2023-01-07T22:34:17.826Z,9.25
2023-01-07T22:37:17.262Z,9.80
2023-01-07T22:39:57.085Z,9.52
2023-01-07T22:42:55.772Z,11.48
2023-01-07T22:45:54.135Z,11.80
2023-01-07T22:48:24.501Z,10.73
2023-01-07T22:50:57.595Z,9.00
2023-01-07T22:53:24.545Z,10.20
2023-01-07T22:55:51.244Z,9.30
2023-01-07T22:58:18.098Z,9.45
2023-01-07T23:00:50.785Z,9.32
2023-01-07T23:03:22.489Z,9.33
2023-01-07T23:05:49.731Z,8.38
2023-01-07T23:08:16.965Z,9.57
2023-01-07T23:10:44.087Z,8.45
2023-01-07T23:13:11.124Z,7.88
2023-01-07T23:15:38.936Z,8.88
2023-01-07T23:18:07.039Z,9.57
2023-01-07T23:20:41.436Z,8.70
2023-01-07T23:23:08.988Z,8.80
2023-01-07T23:25:36.658Z,9.07
2023-01-07T23:28:04.571Z,9.00
2023-01-07T23:30:31.210Z,9.60
2023-01-07T23:32:57.958Z,8.43
2023-01-07T23:35:24.600Z,8.43
2023-01-07T23:37:51.226Z,8.48
2023-01-07T23:40:18.266Z,8.43
2023-01-07T23:42:49.381Z,8.48
2023-01-07T23:45:16.719Z,9.13
2023-01-07T23:47:43.291Z,9.05
2023-01-07T23:50:10.203Z,9.30
2023-01-07T23:52:36.696Z,8.82
2023-01-07T23:55:03.301Z,9.35
2023-01-07T23:57:29.977Z,9.00
2023-01-07T23:59:56.558Z,10.32
